sensor_id;sensor_type;location;lat;lon;timestamp;temperature;humidity
27819;DHT22;15192;44.854;10.046;2023-07-13T00:01:16;24.60;99.90
27819;DHT22;15192;44.854;10.046;2023-07-13T00:03:47;24.60;99.90
27819;DHT22;15192;44.854;10.046;2023-07-13T00:06:16;24.60;99.90
27819;DHT22;15192;44.854;10.046;2023-07-13T00:08:45;24.60;99.90
27819;DHT22;15192;44.854;10.046;2023-07-13T00:11:16;24.50;99.90
27819;DHT22;15192;44.854;10.046;2023-07-13T00:13:45;24.50;99.90
27819;DHT22;15192;44.854;10.046;2023-07-13T00:16:14;24.40;99.90
27819;DHT22;15192;44.854;10.046;2023-07-13T00:18:43;24.30;99.90
27819;DHT22;15192;44.854;10.046;2023-07-13T00:21:12;24.30;99.90
27819;DHT22;15192;44.854;10.046;2023-07-13T00:23:42;24.10;99.90
27819;DHT22;15192;44.854;10.046;2023-07-13T00:26:12;24.10;99.90
27819;DHT22;15192;44.854;10.046;2023-07-13T00:28:41;24.00;99.90
27819;DHT22;15192;44.854;10.046;2023-07-13T00:31:11;24.00;99.90
27819;DHT22;15192;44.854;10.046;2023-07-13T00:33:41;24.00;99.90
27819;DHT22;15192;44.854;10.046;2023-07-13T00:36:11;24.00;99.90
27819;DHT22;15192;44.854;10.046;2023-07-13T00:41:09;23.90;99.90
27819;DHT22;15192;44.854;10.046;2023-07-13T00:43:39;23.80;99.90
27819;DHT22;15192;44.854;10.046;2023-07-13T00:46:17;23.80;99.90
27819;DHT22;15192;44.854;10.046;2023-07-13T00:48:44;23.80;99.90
27819;DHT22;15192;44.854;10.046;2023-07-13T00:51:18;23.80;99.90
27819;DHT22;15192;44.854;10.046;2023-07-13T00:53:48;23.70;99.90
27819;DHT22;15192;44.854;10.046;2023-07-13T00:56:17;23.70;99.90
27819;DHT22;15192;44.854;10.046;2023-07-13T00:58:46;23.60;99.90
27819;DHT22;15192;44.854;10.046;2023-07-13T01:01:15;23.60;99.90
27819;DHT22;15192;44.854;10.046;2023-07-13T01:03:44;23.50;99.90
27819;DHT22;15192;44.854;10.046;2023-07-13T01:06:14;23.50;99.90
27819;DHT22;15192;44.854;10.046;2023-07-13T01:08:44;23.40;99.90
27819;DHT22;15192;44.854;10.046;2023-07-13T01:11:18;23.30;99.90
27819;DHT22;15192;44.854;10.046;2023-07-13T01:13:45;23.30;99.90
27819;DHT22;15192;44.854;10.046;2023-07-13T01:16:19;23.30;99.90
27819;DHT22;15192;44.854;10.046;2023-07-13T01:18:46;23.30;99.90
27819;DHT22;15192;44.854;10.046;2023-07-13T01:21:15;23.20;99.90
27819;DHT22;15192;44.854;10.046;2023-07-13T01:23:44;23.10;99.90
27819;DHT22;15192;44.854;10.046;2023-07-13T01:26:13;23.10;99.90
27819;DHT22;15192;44.854;10.046;2023-07-13T01:28:42;23.00;99.90
27819;DHT22;15192;44.854;10.046;2023-07-13T01:31:11;23.00;99.90
27819;DHT22;15192;44.854;10.046;2023-07-13T01:33:40;23.00;99.90
27819;DHT22;15192;44.854;10.046;2023-07-13T01:36:11;22.90;99.90
27819;DHT22;15192;44.854;10.046;2023-07-13T01:38:39;22.90;99.90
27819;DHT22;15192;44.854;10.046;2023-07-13T01:41:09;23.00;99.90
27819;DHT22;15192;44.854;10.046;2023-07-13T01:43:38;23.00;99.90
27819;DHT22;15192;44.854;10.046;2023-07-13T01:46:08;23.00;99.90
27819;DHT22;15192;44.854;10.046;2023-07-13T01:48:36;23.00;99.90
27819;DHT22;15192;44.854;10.046;2023-07-13T01:51:05;23.00;99.90
27819;DHT22;15192;44.854;10.046;2023-07-13T01:53:34;23.00;99.90
27819;DHT22;15192;44.854;10.046;2023-07-13T01:56:03;22.90;99.90
27819;DHT22;15192;44.854;10.046;2023-07-13T01:58:32;23.00;99.90
27819;DHT22;15192;44.854;10.046;2023-07-13T02:01:01;23.00;99.90
27819;DHT22;15192;44.854;10.046;2023-07-13T02:03:30;23.10;99.90
27819;DHT22;15192;44.854;10.046;2023-07-13T02:05:59;23.10;99.90
27819;DHT22;15192;44.854;10.046;2023-07-13T02:08:28;23.10;99.90
27819;DHT22;15192;44.854;10.046;2023-07-13T02:10:57;23.10;99.90
27819;DHT22;15192;44.854;10.046;2023-07-13T02:13:26;23.10;99.90
27819;DHT22;15192;44.854;10.046;2023-07-13T02:15:56;23.20;99.90
27819;DHT22;15192;44.854;10.046;2023-07-13T02:18:25;23.10;99.90
27819;DHT22;15192;44.854;10.046;2023-07-13T02:20:54;23.10;99.90
27819;DHT22;15192;44.854;10.046;2023-07-13T02:23:22;23.00;99.90
27819;DHT22;15192;44.854;10.046;2023-07-13T02:25:59;23.00;99.90
27819;DHT22;15192;44.854;10.046;2023-07-13T02:28:29;22.90;99.90
27819;DHT22;15192;44.854;10.046;2023-07-13T02:31:06;22.90;99.90
27819;DHT22;15192;44.854;10.046;2023-07-13T02:33:35;22.90;99.90
27819;DHT22;15192;44.854;10.046;2023-07-13T02:36:04;22.80;99.90
27819;DHT22;15192;44.854;10.046;2023-07-13T02:38:34;22.80;99.90
27819;DHT22;15192;44.854;10.046;2023-07-13T02:41:04;22.70;99.90
27819;DHT22;15192;44.854;10.046;2023-07-13T02:43:34;22.70;99.90
27819;DHT22;15192;44.854;10.046;2023-07-13T02:46:03;22.70;99.90
27819;DHT22;15192;44.854;10.046;2023-07-13T02:48:34;22.70;99.90
27819;DHT22;15192;44.854;10.046;2023-07-13T02:51:03;22.70;99.90
27819;DHT22;15192;44.854;10.046;2023-07-13T02:53:32;22.80;99.90
27819;DHT22;15192;44.854;10.046;2023-07-13T02:56:03;22.80;99.90
27819;DHT22;15192;44.854;10.046;2023-07-13T02:58:33;22.70;99.90
27819;DHT22;15192;44.854;10.046;2023-07-13T03:01:06;22.60;99.90
27819;DHT22;15192;44.854;10.046;2023-07-13T03:03:35;22.60;99.90
27819;DHT22;15192;44.854;10.046;2023-07-13T03:06:05;22.60;99.90
27819;DHT22;15192;44.854;10.046;2023-07-13T03:08:37;22.50;99.90
27819;DHT22;15192;44.854;10.046;2023-07-13T03:11:08;22.40;99.90
27819;DHT22;15192;44.854;10.046;2023-07-13T03:13:40;22.40;99.90
27819;DHT22;15192;44.854;10.046;2023-07-13T03:16:11;22.30;99.90
27819;DHT22;15192;44.854;10.046;2023-07-13T03:18:42;22.30;99.90
27819;DHT22;15192;44.854;10.046;2023-07-13T03:21:12;22.30;99.90
27819;DHT22;15192;44.854;10.046;2023-07-13T03:23:41;22.40;99.90
27819;DHT22;15192;44.854;10.046;2023-07-13T03:26:19;22.40;99.90
27819;DHT22;15192;44.854;10.046;2023-07-13T03:28:43;22.30;99.90
27819;DHT22;15192;44.854;10.046;2023-07-13T03:31:16;22.30;99.90
27819;DHT22;15192;44.854;10.046;2023-07-13T03:33:46;22.30;99.90
27819;DHT22;15192;44.854;10.046;2023-07-13T03:36:19;22.30;99.90
27819;DHT22;15192;44.854;10.046;2023-07-13T03:38:51;22.20;99.90
27819;DHT22;15192;44.854;10.046;2023-07-13T03:41:23;22.10;99.90
27819;DHT22;15192;44.854;10.046;2023-07-13T03:43:54;22.10;99.90
27819;DHT22;15192;44.854;10.046;2023-07-13T03:46:24;22.20;99.90
27819;DHT22;15192;44.854;10.046;2023-07-13T03:48:53;22.20;99.90
27819;DHT22;15192;44.854;10.046;2023-07-13T03:51:22;22.30;99.90
27819;DHT22;15192;44.854;10.046;2023-07-13T03:53:52;22.30;99.90
27819;DHT22;15192;44.854;10.046;2023-07-13T03:56:21;22.30;99.90
27819;DHT22;15192;44.854;10.046;2023-07-13T03:58:51;22.30;99.90
27819;DHT22;15192;44.854;10.046;2023-07-13T04:01:22;22.30;99.90
27819;DHT22;15192;44.854;10.046;2023-07-13T04:03:52;22.20;99.90
27819;DHT22;15192;44.854;10.046;2023-07-13T04:06:30;22.20;99.90
27819;DHT22;15192;44.854;10.046;2023-07-13T04:08:56;22.20;99.90
27819;DHT22;15192;44.854;10.046;2023-07-13T04:11:28;22.20;99.90
27819;DHT22;15192;44.854;10.046;2023-07-13T04:13:59;22.20;99.90
27819;DHT22;15192;44.854;10.046;2023-07-13T04:16:28;22.30;99.90
27819;DHT22;15192;44.854;10.046;2023-07-13T04:18:57;22.40;99.90
27819;DHT22;15192;44.854;10.046;2023-07-13T04:21:29;22.50;99.90
27819;DHT22;15192;44.854;10.046;2023-07-13T04:23:59;22.50;99.90
27819;DHT22;15192;44.854;10.046;2023-07-13T04:26:28;22.50;99.90
27819;DHT22;15192;44.854;10.046;2023-07-13T04:28:57;22.50;99.90
27819;DHT22;15192;44.854;10.046;2023-07-13T04:31:26;22.60;99.90
27819;DHT22;15192;44.854;10.046;2023-07-13T04:33:56;22.60;99.90
27819;DHT22;15192;44.854;10.046;2023-07-13T04:36:25;22.70;99.90
27819;DHT22;15192;44.854;10.046;2023-07-13T04:38:57;22.80;99.90
27819;DHT22;15192;44.854;10.046;2023-07-13T04:41:26;22.80;99.90
27819;DHT22;15192;44.854;10.046;2023-07-13T04:43:55;22.80;99.90
27819;DHT22;15192;44.854;10.046;2023-07-13T04:46:24;22.70;99.90
27819;DHT22;15192;44.854;10.046;2023-07-13T04:48:53;22.70;99.90
27819;DHT22;15192;44.854;10.046;2023-07-13T04:51:22;22.70;99.90
27819;DHT22;15192;44.854;10.046;2023-07-13T04:53:51;22.70;99.90
27819;DHT22;15192;44.854;10.046;2023-07-13T04:56:20;22.60;99.90
27819;DHT22;15192;44.854;10.046;2023-07-13T04:58:49;22.60;99.90
27819;DHT22;15192;44.854;10.046;2023-07-13T05:01:18;22.70;99.90
27819;DHT22;15192;44.854;10.046;2023-07-13T05:03:48;22.70;99.90
27819;DHT22;15192;44.854;10.046;2023-07-13T05:06:16;22.80;99.90
27819;DHT22;15192;44.854;10.046;2023-07-13T05:08:45;22.80;99.90
27819;DHT22;15192;44.854;10.046;2023-07-13T05:11:14;22.80;99.90
27819;DHT22;15192;44.854;10.046;2023-07-13T05:13:43;22.80;99.90
27819;DHT22;15192;44.854;10.046;2023-07-13T05:16:12;22.80;99.90
27819;DHT22;15192;44.854;10.046;2023-07-13T05:18:41;22.90;99.90
27819;DHT22;15192;44.854;10.046;2023-07-13T05:21:11;22.80;99.90
27819;DHT22;15192;44.854;10.046;2023-07-13T05:23:40;22.80;99.90
27819;DHT22;15192;44.854;10.046;2023-07-13T05:26:12;22.80;99.90
27819;DHT22;15192;44.854;10.046;2023-07-13T05:28:41;22.80;99.90
27819;DHT22;15192;44.854;10.046;2023-07-13T05:31:10;22.80;99.90
27819;DHT22;15192;44.854;10.046;2023-07-13T05:33:39;22.80;99.90
27819;DHT22;15192;44.854;10.046;2023-07-13T05:36:08;22.80;99.90
27819;DHT22;15192;44.854;10.046;2023-07-13T05:38:37;22.80;99.90
27819;DHT22;15192;44.854;10.046;2023-07-13T05:41:07;22.90;99.90
27819;DHT22;15192;44.854;10.046;2023-07-13T05:43:36;22.90;99.90
27819;DHT22;15192;44.854;10.046;2023-07-13T05:46:05;22.90;99.90
27819;DHT22;15192;44.854;10.046;2023-07-13T05:48:34;22.90;99.90
27819;DHT22;15192;44.854;10.046;2023-07-13T05:51:03;22.80;99.90
27819;DHT22;15192;44.854;10.046;2023-07-13T05:53:32;22.70;99.90
27819;DHT22;15192;44.854;10.046;2023-07-13T05:56:01;22.70;99.90
27819;DHT22;15192;44.854;10.046;2023-07-13T05:58:30;22.70;99.90
27819;DHT22;15192;44.854;10.046;2023-07-13T06:01:08;22.70;99.90
27819;DHT22;15192;44.854;10.046;2023-07-13T06:03:37;22.70;99.90
27819;DHT22;15192;44.854;10.046;2023-07-13T06:06:08;22.60;99.90
27819;DHT22;15192;44.854;10.046;2023-07-13T06:08:38;22.60;99.90
27819;DHT22;15192;44.854;10.046;2023-07-13T06:11:10;22.60;99.90
27819;DHT22;15192;44.854;10.046;2023-07-13T06:13:38;22.50;99.90
27819;DHT22;15192;44.854;10.046;2023-07-13T06:16:07;22.50;99.90
27819;DHT22;15192;44.854;10.046;2023-07-13T06:18:37;22.50;99.90
27819;DHT22;15192;44.854;10.046;2023-07-13T06:21:12;22.50;99.90
27819;DHT22;15192;44.854;10.046;2023-07-13T06:23:40;22.60;99.90
27819;DHT22;15192;44.854;10.046;2023-07-13T06:26:10;22.70;99.90
27819;DHT22;15192;44.854;10.046;2023-07-13T06:28:39;22.60;99.90
27819;DHT22;15192;44.854;10.046;2023-07-13T06:31:10;22.60;99.90
27819;DHT22;15192;44.854;10.046;2023-07-13T06:33:39;22.60;99.90
27819;DHT22;15192;44.854;10.046;2023-07-13T06:36:08;22.60;99.90
27819;DHT22;15192;44.854;10.046;2023-07-13T06:38:37;22.70;99.90
27819;DHT22;15192;44.854;10.046;2023-07-13T06:41:08;22.70;99.90
27819;DHT22;15192;44.854;10.046;2023-07-13T06:43:36;22.60;99.90
27819;DHT22;15192;44.854;10.046;2023-07-13T06:46:05;22.60;99.90
27819;DHT22;15192;44.854;10.046;2023-07-13T06:48:34;22.60;99.90
27819;DHT22;15192;44.854;10.046;2023-07-13T06:51:03;22.60;99.90
27819;DHT22;15192;44.854;10.046;2023-07-13T06:53:32;22.60;99.90
27819;DHT22;15192;44.854;10.046;2023-07-13T06:56:01;22.60;99.90
27819;DHT22;15192;44.854;10.046;2023-07-13T06:58:30;22.60;99.90
27819;DHT22;15192;44.854;10.046;2023-07-13T07:00:59;22.60;99.90
27819;DHT22;15192;44.854;10.046;2023-07-13T07:03:28;22.60;99.90
27819;DHT22;15192;44.854;10.046;2023-07-13T07:06:12;22.60;99.90
27819;DHT22;15192;44.854;10.046;2023-07-13T07:08:42;22.70;99.90
27819;DHT22;15192;44.854;10.046;2023-07-13T07:11:15;22.70;99.90
27819;DHT22;15192;44.854;10.046;2023-07-13T07:13:45;22.70;99.90
27819;DHT22;15192;44.854;10.046;2023-07-13T07:16:14;22.60;99.90
27819;DHT22;15192;44.854;10.046;2023-07-13T07:18:44;22.60;99.90
27819;DHT22;15192;44.854;10.046;2023-07-13T07:21:13;22.60;99.90
27819;DHT22;15192;44.854;10.046;2023-07-13T07:23:43;22.60;99.90
27819;DHT22;15192;44.854;10.046;2023-07-13T07:26:12;22.50;99.90
27819;DHT22;15192;44.854;10.046;2023-07-13T07:28:41;22.40;99.90
27819;DHT22;15192;44.854;10.046;2023-07-13T07:31:10;22.40;99.90
27819;DHT22;15192;44.854;10.046;2023-07-13T07:33:39;22.40;99.90
27819;DHT22;15192;44.854;10.046;2023-07-13T07:36:08;22.40;99.90
27819;DHT22;15192;44.854;10.046;2023-07-13T07:38:37;22.50;99.90
27819;DHT22;15192;44.854;10.046;2023-07-13T07:41:05;22.50;99.90
27819;DHT22;15192;44.854;10.046;2023-07-13T07:43:35;22.50;99.90
27819;DHT22;15192;44.854;10.046;2023-07-13T07:46:04;22.60;99.90
27819;DHT22;15192;44.854;10.046;2023-07-13T07:48:33;22.60;99.90
27819;DHT22;15192;44.854;10.046;2023-07-13T07:51:02;22.60;99.90
27819;DHT22;15192;44.854;10.046;2023-07-13T07:53:31;22.50;99.90
27819;DHT22;15192;44.854;10.046;2023-07-13T07:56:00;22.50;99.90
27819;DHT22;15192;44.854;10.046;2023-07-13T07:58:28;22.40;99.90
27819;DHT22;15192;44.854;10.046;2023-07-13T08:01:05;22.50;99.90
27819;DHT22;15192;44.854;10.046;2023-07-13T08:03:34;22.40;99.90
27819;DHT22;15192;44.854;10.046;2023-07-13T08:06:03;22.40;99.90
27819;DHT22;15192;44.854;10.046;2023-07-13T08:08:32;22.40;99.90
27819;DHT22;15192;44.854;10.046;2023-07-13T08:11:04;22.40;99.90
27819;DHT22;15192;44.854;10.046;2023-07-13T08:13:32;22.50;99.90
27819;DHT22;15192;44.854;10.046;2023-07-13T08:16:01;22.50;99.90
27819;DHT22;15192;44.854;10.046;2023-07-13T08:18:30;22.50;99.90
27819;DHT22;15192;44.854;10.046;2023-07-13T08:21:07;22.50;99.90
27819;DHT22;15192;44.854;10.046;2023-07-13T08:23:36;22.50;99.90
27819;DHT22;15192;44.854;10.046;2023-07-13T08:26:05;22.50;99.90
27819;DHT22;15192;44.854;10.046;2023-07-13T08:28:34;22.50;99.90
27819;DHT22;15192;44.854;10.046;2023-07-13T08:31:04;22.50;99.90
27819;DHT22;15192;44.854;10.046;2023-07-13T08:33:35;22.40;99.90
27819;DHT22;15192;44.854;10.046;2023-07-13T08:36:04;22.50;99.90
27819;DHT22;15192;44.854;10.046;2023-07-13T08:38:34;22.50;99.90
27819;DHT22;15192;44.854;10.046;2023-07-13T08:41:13;22.50;99.90
27819;DHT22;15192;44.854;10.046;2023-07-13T08:43:44;22.60;99.90
27819;DHT22;15192;44.854;10.046;2023-07-13T08:46:36;22.60;99.90
27819;DHT22;15192;44.854;10.046;2023-07-13T08:49:19;22.60;99.90
27819;DHT22;15192;44.854;10.046;2023-07-13T08:51:55;22.60;99.90
27819;DHT22;15192;44.854;10.046;2023-07-13T08:54:35;22.60;99.90
27819;DHT22;15192;44.854;10.046;2023-07-13T08:57:13;22.70;99.90
27819;DHT22;15192;44.854;10.046;2023-07-13T08:59:44;22.90;99.90
27819;DHT22;15192;44.854;10.046;2023-07-13T09:02:42;23.20;99.90
27819;DHT22;15192;44.854;10.046;2023-07-13T09:05:27;23.40;99.90
27819;DHT22;15192;44.854;10.046;2023-07-13T09:08:20;23.60;99.90
27819;DHT22;15192;44.854;10.046;2023-07-13T09:10:45;23.80;99.90
27819;DHT22;15192;44.854;10.046;2023-07-13T09:13:25;24.10;99.90
27819;DHT22;15192;44.854;10.046;2023-07-13T09:15:53;24.40;99.90
27819;DHT22;15192;44.854;10.046;2023-07-13T09:18:36;24.70;99.90
27819;DHT22;15192;44.854;10.046;2023-07-13T09:21:35;24.80;99.90
27819;DHT22;15192;44.854;10.046;2023-07-13T09:24:24;25.00;99.90
27819;DHT22;15192;44.854;10.046;2023-07-13T09:26:42;25.10;99.90
27819;DHT22;15192;44.854;10.046;2023-07-13T09:29:29;25.20;99.90
27819;DHT22;15192;44.854;10.046;2023-07-13T09:32:01;25.40;99.90
27819;DHT22;15192;44.854;10.046;2023-07-13T09:34:30;25.80;99.90
27819;DHT22;15192;44.854;10.046;2023-07-13T09:37:00;26.00;99.90
27819;DHT22;15192;44.854;10.046;2023-07-13T09:39:33;26.30;99.90
27819;DHT22;15192;44.854;10.046;2023-07-13T09:42:36;26.60;99.90
27819;DHT22;15192;44.854;10.046;2023-07-13T09:47:30;27.50;99.90
27819;DHT22;15192;44.854;10.046;2023-07-13T09:50:02;27.70;99.90
27819;DHT22;15192;44.854;10.046;2023-07-13T09:52:48;27.80;99.90
27819;DHT22;15192;44.854;10.046;2023-07-13T09:57:55;27.60;99.90
27819;DHT22;15192;44.854;10.046;2023-07-13T10:00:27;27.70;99.90
27819;DHT22;15192;44.854;10.046;2023-07-13T10:03:01;27.70;99.90
27819;DHT22;15192;44.854;10.046;2023-07-13T10:05:42;27.70;99.90
27819;DHT22;15192;44.854;10.046;2023-07-13T10:08:19;27.50;99.90
27819;DHT22;15192;44.854;10.046;2023-07-13T10:10:53;27.50;99.90
27819;DHT22;15192;44.854;10.046;2023-07-13T10:13:35;27.40;99.90
27819;DHT22;15192;44.854;10.046;2023-07-13T10:16:06;27.40;99.90
27819;DHT22;15192;44.854;10.046;2023-07-13T10:18:48;27.50;99.90
27819;DHT22;15192;44.854;10.046;2023-07-13T10:21:23;27.50;99.90
27819;DHT22;15192;44.854;10.046;2023-07-13T10:24:13;27.70;99.90
27819;DHT22;15192;44.854;10.046;2023-07-13T10:26:34;27.70;99.90
27819;DHT22;15192;44.854;10.046;2023-07-13T10:29:05;27.80;99.90
27819;DHT22;15192;44.854;10.046;2023-07-13T10:31:38;27.80;99.90
27819;DHT22;15192;44.854;10.046;2023-07-13T10:34:08;27.60;99.90
27819;DHT22;15192;44.854;10.046;2023-07-13T10:36:45;27.40;99.90
27819;DHT22;15192;44.854;10.046;2023-07-13T10:39:20;27.40;99.90
27819;DHT22;15192;44.854;10.046;2023-07-13T10:41:53;27.40;99.90
27819;DHT22;15192;44.854;10.046;2023-07-13T10:44:30;27.50;99.90
27819;DHT22;15192;44.854;10.046;2023-07-13T10:47:11;27.60;99.90
27819;DHT22;15192;44.854;10.046;2023-07-13T10:49:35;27.60;99.90
27819;DHT22;15192;44.854;10.046;2023-07-13T10:52:05;27.60;99.90
27819;DHT22;15192;44.854;10.046;2023-07-13T10:54:34;27.50;99.90
27819;DHT22;15192;44.854;10.046;2023-07-13T10:57:21;27.50;99.90
27819;DHT22;15192;44.854;10.046;2023-07-13T11:00:16;27.60;99.90
27819;DHT22;15192;44.854;10.046;2023-07-13T11:02:40;27.60;99.90
27819;DHT22;15192;44.854;10.046;2023-07-13T11:05:30;27.50;99.90
27819;DHT22;15192;44.854;10.046;2023-07-13T11:08:15;27.60;99.90
27819;DHT22;15192;44.854;10.046;2023-07-13T11:10:52;27.50;99.90
27819;DHT22;15192;44.854;10.046;2023-07-13T11:16:13;27.60;99.90
27819;DHT22;15192;44.854;10.046;2023-07-13T11:18:54;27.70;99.90
27819;DHT22;15192;44.854;10.046;2023-07-13T11:21:26;27.80;99.90
27819;DHT22;15192;44.854;10.046;2023-07-13T11:24:04;27.80;99.90
27819;DHT22;15192;44.854;10.046;2023-07-13T11:26:41;27.90;99.90
27819;DHT22;15192;44.854;10.046;2023-07-13T11:31:56;28.00;99.90
27819;DHT22;15192;44.854;10.046;2023-07-13T11:34:34;28.10;99.90
27819;DHT22;15192;44.854;10.046;2023-07-13T11:37:02;28.10;99.90
27819;DHT22;15192;44.854;10.046;2023-07-13T11:39:34;28.20;99.90
27819;DHT22;15192;44.854;10.046;2023-07-13T11:42:07;28.30;99.90
27819;DHT22;15192;44.854;10.046;2023-07-13T11:44:41;28.30;99.90
27819;DHT22;15192;44.854;10.046;2023-07-13T11:47:20;28.30;99.90
27819;DHT22;15192;44.854;10.046;2023-07-13T11:49:51;28.40;99.90
27819;DHT22;15192;44.854;10.046;2023-07-13T11:52:31;28.60;99.90
27819;DHT22;15192;44.854;10.046;2023-07-13T11:54:55;28.70;99.90
27819;DHT22;15192;44.854;10.046;2023-07-13T11:57:26;28.60;99.90
27819;DHT22;15192;44.854;10.046;2023-07-13T11:59:58;28.60;99.90
27819;DHT22;15192;44.854;10.046;2023-07-13T12:02:31;28.60;99.90
27819;DHT22;15192;44.854;10.046;2023-07-13T12:05:01;28.60;99.90
27819;DHT22;15192;44.854;10.046;2023-07-13T12:07:33;28.50;99.90
27819;DHT22;15192;44.854;10.046;2023-07-13T12:10:23;28.60;99.90
27819;DHT22;15192;44.854;10.046;2023-07-13T12:13:04;28.60;99.90
27819;DHT22;15192;44.854;10.046;2023-07-13T12:15:39;28.70;99.90
27819;DHT22;15192;44.854;10.046;2023-07-13T12:18:18;28.70;99.90
27819;DHT22;15192;44.854;10.046;2023-07-13T12:20:47;28.70;99.90
27819;DHT22;15192;44.854;10.046;2023-07-13T12:23:31;28.80;99.90
27819;DHT22;15192;44.854;10.046;2023-07-13T12:26:03;28.80;99.90
27819;DHT22;15192;44.854;10.046;2023-07-13T12:28:44;28.80;99.90
27819;DHT22;15192;44.854;10.046;2023-07-13T12:31:40;28.80;99.90
27819;DHT22;15192;44.854;10.046;2023-07-13T12:34:13;28.80;99.90
27819;DHT22;15192;44.854;10.046;2023-07-13T12:36:51;29.00;99.90
27819;DHT22;15192;44.854;10.046;2023-07-13T12:42:09;29.00;99.90
27819;DHT22;15192;44.854;10.046;2023-07-13T12:44:31;28.90;99.90
27819;DHT22;15192;44.854;10.046;2023-07-13T12:47:05;28.90;99.90
27819;DHT22;15192;44.854;10.046;2023-07-13T12:49:40;28.90;99.90
27819;DHT22;15192;44.854;10.046;2023-07-13T12:52:27;28.90;99.90
27819;DHT22;15192;44.854;10.046;2023-07-13T12:55:04;28.80;99.90
27819;DHT22;15192;44.854;10.046;2023-07-13T12:57:29;28.90;99.90
27819;DHT22;15192;44.854;10.046;2023-07-13T12:59:58;28.90;99.90
27819;DHT22;15192;44.854;10.046;2023-07-13T13:02:32;29.10;99.90
27819;DHT22;15192;44.854;10.046;2023-07-13T13:05:03;29.10;99.90
27819;DHT22;15192;44.854;10.046;2023-07-13T13:07:33;29.10;99.90
27819;DHT22;15192;44.854;10.046;2023-07-13T13:10:04;29.20;99.90
27819;DHT22;15192;44.854;10.046;2023-07-13T13:12:34;29.20;99.90
27819;DHT22;15192;44.854;10.046;2023-07-13T13:15:03;29.30;99.90
27819;DHT22;15192;44.854;10.046;2023-07-13T13:17:33;29.30;99.90
27819;DHT22;15192;44.854;10.046;2023-07-13T13:20:17;29.30;99.90
27819;DHT22;15192;44.854;10.046;2023-07-13T13:22:46;29.40;99.90
27819;DHT22;15192;44.854;10.046;2023-07-13T13:25:15;29.60;99.90
27819;DHT22;15192;44.854;10.046;2023-07-13T13:27:46;29.60;99.90
27819;DHT22;15192;44.854;10.046;2023-07-13T13:30:17;29.70;99.90
27819;DHT22;15192;44.854;10.046;2023-07-13T13:32:46;29.70;99.90
27819;DHT22;15192;44.854;10.046;2023-07-13T13:35:16;29.80;99.90
27819;DHT22;15192;44.854;10.046;2023-07-13T13:37:47;29.70;99.90
27819;DHT22;15192;44.854;10.046;2023-07-13T13:40:20;29.70;99.90
27819;DHT22;15192;44.854;10.046;2023-07-13T13:42:51;29.70;99.90
27819;DHT22;15192;44.854;10.046;2023-07-13T13:45:21;29.70;99.90
27819;DHT22;15192;44.854;10.046;2023-07-13T13:47:52;29.70;99.90
27819;DHT22;15192;44.854;10.046;2023-07-13T13:50:22;29.80;99.90
27819;DHT22;15192;44.854;10.046;2023-07-13T13:52:51;29.90;99.90
27819;DHT22;15192;44.854;10.046;2023-07-13T13:55:21;29.90;99.90
27819;DHT22;15192;44.854;10.046;2023-07-13T13:57:51;30.00;99.90
27819;DHT22;15192;44.854;10.046;2023-07-13T14:00:21;29.90;99.90
27819;DHT22;15192;44.854;10.046;2023-07-13T14:02:50;29.90;99.90
27819;DHT22;15192;44.854;10.046;2023-07-13T14:05:25;30.00;99.90
27819;DHT22;15192;44.854;10.046;2023-07-13T14:07:54;30.10;99.90
27819;DHT22;15192;44.854;10.046;2023-07-13T14:10:24;30.20;99.90
27819;DHT22;15192;44.854;10.046;2023-07-13T14:12:54;30.30;99.90
27819;DHT22;15192;44.854;10.046;2023-07-13T14:15:27;30.40;99.90
27819;DHT22;15192;44.854;10.046;2023-07-13T14:17:58;30.60;99.90
27819;DHT22;15192;44.854;10.046;2023-07-13T14:20:26;30.50;99.90
27819;DHT22;15192;44.854;10.046;2023-07-13T14:22:57;30.60;99.90
27819;DHT22;15192;44.854;10.046;2023-07-13T14:25:26;30.50;99.90
27819;DHT22;15192;44.854;10.046;2023-07-13T14:27:59;30.50;99.90
27819;DHT22;15192;44.854;10.046;2023-07-13T14:30:30;30.30;99.90
27819;DHT22;15192;44.854;10.046;2023-07-13T14:32:59;30.30;99.90
27819;DHT22;15192;44.854;10.046;2023-07-13T14:35:28;30.30;99.90
27819;DHT22;15192;44.854;10.046;2023-07-13T14:37:57;30.30;99.90
27819;DHT22;15192;44.854;10.046;2023-07-13T14:40:29;30.30;99.90
27819;DHT22;15192;44.854;10.046;2023-07-13T14:42:59;30.40;99.90
27819;DHT22;15192;44.854;10.046;2023-07-13T14:45:28;30.50;99.90
27819;DHT22;15192;44.854;10.046;2023-07-13T14:47:58;30.50;99.90
27819;DHT22;15192;44.854;10.046;2023-07-13T14:50:30;30.60;99.90
27819;DHT22;15192;44.854;10.046;2023-07-13T14:53:00;30.70;99.90
27819;DHT22;15192;44.854;10.046;2023-07-13T14:55:29;30.90;99.90
27819;DHT22;15192;44.854;10.046;2023-07-13T14:57:57;30.90;99.90
27819;DHT22;15192;44.854;10.046;2023-07-13T15:00:26;30.90;99.90
27819;DHT22;15192;44.854;10.046;2023-07-13T15:02:57;30.90;99.90
27819;DHT22;15192;44.854;10.046;2023-07-13T15:05:30;30.90;99.90
27819;DHT22;15192;44.854;10.046;2023-07-13T15:08:00;30.80;99.90
27819;DHT22;15192;44.854;10.046;2023-07-13T15:10:31;30.70;99.90
27819;DHT22;15192;44.854;10.046;2023-07-13T15:13:13;30.60;99.90
27819;DHT22;15192;44.854;10.046;2023-07-13T15:15:33;30.50;99.90
27819;DHT22;15192;44.854;10.046;2023-07-13T15:18:03;30.40;99.90
27819;DHT22;15192;44.854;10.046;2023-07-13T15:20:33;30.40;99.90
27819;DHT22;15192;44.854;10.046;2023-07-13T15:23:05;30.50;99.90
27819;DHT22;15192;44.854;10.046;2023-07-13T15:25:34;30.50;99.90
27819;DHT22;15192;44.854;10.046;2023-07-13T15:28:03;30.50;99.90
27819;DHT22;15192;44.854;10.046;2023-07-13T15:30:37;30.50;99.90
27819;DHT22;15192;44.854;10.046;2023-07-13T15:35:45;30.50;99.90
27819;DHT22;15192;44.854;10.046;2023-07-13T15:38:19;30.70;99.90
27819;DHT22;15192;44.854;10.046;2023-07-13T15:40:49;30.70;99.90
27819;DHT22;15192;44.854;10.046;2023-07-13T15:43:19;30.80;99.90
27819;DHT22;15192;44.854;10.046;2023-07-13T15:45:49;30.80;99.90
27819;DHT22;15192;44.854;10.046;2023-07-13T15:48:22;30.80;99.90
27819;DHT22;15192;44.854;10.046;2023-07-13T15:50:53;30.70;99.90
27819;DHT22;15192;44.854;10.046;2023-07-13T15:55:52;30.80;99.90
27819;DHT22;15192;44.854;10.046;2023-07-13T15:58:21;30.90;99.90
27819;DHT22;15192;44.854;10.046;2023-07-13T16:00:50;30.90;99.90
27819;DHT22;15192;44.854;10.046;2023-07-13T16:03:21;30.80;99.90